sensor_id;sensor_type;location;lat;lon;timestamp;pressure;altitude;pressure_sealevel;temperature;humidity
69221;BME280;56331;51.992;20.910;2023-03-16T00:01:23;100339.30;;;22.54;30.16
69221;BME280;56331;51.992;20.910;2023-03-16T00:03:49;100344.85;;;22.54;30.17
69221;BME280;56331;51.992;20.910;2023-03-16T00:06:16;100341.02;;;22.52;30.19
69221;BME280;56331;51.992;20.910;2023-03-16T00:08:42;100339.63;;;22.52;30.19
69221;BME280;56331;51.992;20.910;2023-03-16T00:11:08;100342.77;;;22.50;30.20
69221;BME280;56331;51.992;20.910;2023-03-16T00:13:34;100347.52;;;22.50;30.19
69221;BME280;56331;51.992;20.910;2023-03-16T00:16:01;100346.69;;;22.49;30.20
69221;BME280;56331;51.992;20.910;2023-03-16T00:18:29;100356.98;;;22.49;30.19
69221;BME280;56331;51.992;20.910;2023-03-16T00:20:59;100347.05;;;22.48;30.17
69221;BME280;56331;51.992;20.910;2023-03-16T00:23:27;100355.96;;;22.47;30.17
69221;BME280;56331;51.992;20.910;2023-03-16T00:25:54;100363.70;;;22.48;30.18
69221;BME280;56331;51.992;20.910;2023-03-16T00:28:21;100369.59;;;22.46;30.19
69221;BME280;56331;51.992;20.910;2023-03-16T00:30:47;100364.84;;;22.47;30.18
69221;BME280;56331;51.992;20.910;2023-03-16T00:33:14;100363.23;;;22.46;30.19
69221;BME280;56331;51.992;20.910;2023-03-16T00:35:40;100364.95;;;22.44;30.14
69221;BME280;56331;51.992;20.910;2023-03-16T00:38:08;100371.34;;;22.45;30.17
69221;BME280;56331;51.992;20.910;2023-03-16T00:40:34;100377.44;;;22.44;30.18
69221;BME280;56331;51.992;20.910;2023-03-16T00:43:00;100375.03;;;22.43;30.14
69221;BME280;56331;51.992;20.910;2023-03-16T00:45:28;100375.83;;;22.43;30.19
69221;BME280;56331;51.992;20.910;2023-03-16T00:47:54;100378.39;;;22.42;30.22
69221;BME280;56331;51.992;20.910;2023-03-16T00:50:20;100379.19;;;22.43;30.15
69221;BME280;56331;51.992;20.910;2023-03-16T00:52:47;100377.55;;;22.42;30.21
69221;BME280;56331;51.992;20.910;2023-03-16T00:55:13;100383.94;;;22.42;30.20
69221;BME280;56331;51.992;20.910;2023-03-16T00:57:39;100387.27;;;22.42;30.22
69221;BME280;56331;51.992;20.910;2023-03-16T01:00:06;100382.30;;;22.41;30.20
69221;BME280;56331;51.992;20.910;2023-03-16T01:02:34;100387.05;;;22.41;30.17
69221;BME280;56331;51.992;20.910;2023-03-16T01:05:01;100384.86;;;22.40;30.19
69221;BME280;56331;51.992;20.910;2023-03-16T01:07:30;100379.05;;;22.39;30.15
69221;BME280;56331;51.992;20.910;2023-03-16T01:09:56;100386.57;;;22.39;30.17
69221;BME280;56331;51.992;20.910;2023-03-16T01:12:22;100387.16;;;22.38;30.16
69221;BME280;56331;51.992;20.910;2023-03-16T01:14:49;100392.13;;;22.39;30.15
69221;BME280;56331;51.992;20.910;2023-03-16T01:17:15;100381.38;;;22.37;30.07
69221;BME280;56331;51.992;20.910;2023-03-16T01:19:42;100388.88;;;22.37;30.14
69221;BME280;56331;51.992;20.910;2023-03-16T01:22:09;100391.65;;;22.37;30.12
69221;BME280;56331;51.992;20.910;2023-03-16T01:24:36;100395.81;;;22.37;30.09
69221;BME280;56331;51.992;20.910;2023-03-16T01:27:03;100392.23;;;22.36;30.14
69221;BME280;56331;51.992;20.910;2023-03-16T01:29:29;100391.65;;;22.37;30.14
69221;BME280;56331;51.992;20.910;2023-03-16T01:31:57;100388.06;;;22.36;30.12
69221;BME280;56331;51.992;20.910;2023-03-16T01:34:24;100392.81;;;22.36;30.11
69221;BME280;56331;51.992;20.910;2023-03-16T01:36:50;100390.84;;;22.36;30.11
69221;BME280;56331;51.992;20.910;2023-03-16T01:39:16;100390.63;;;22.35;30.12
69221;BME280;56331;51.992;20.910;2023-03-16T01:41:43;100391.20;;;22.35;30.04
69221;BME280;56331;51.992;20.910;2023-03-16T01:44:14;100396.75;;;22.35;29.98
69221;BME280;56331;51.992;20.910;2023-03-16T01:46:41;100397.31;;;22.34;30.10
69221;BME280;56331;51.992;20.910;2023-03-16T01:51:45;100398.14;;;22.35;30.11
69221;BME280;56331;51.992;20.910;2023-03-16T01:54:18;100402.05;;;22.34;30.00
69221;BME280;56331;51.992;20.910;2023-03-16T01:59:29;100397.45;;;22.32;30.07
69221;BME280;56331;51.992;20.910;2023-03-16T02:01:59;100403.80;;;22.32;30.03
69221;BME280;56331;51.992;20.910;2023-03-16T02:06:59;100406.33;;;22.31;30.06
69221;BME280;56331;51.992;20.910;2023-03-16T02:09:25;100406.11;;;22.30;30.06
69221;BME280;56331;51.992;20.910;2023-03-16T02:11:53;100408.30;;;22.31;30.08
69221;BME280;56331;51.992;20.910;2023-03-16T02:14:22;100401.13;;;22.30;30.01
69221;BME280;56331;51.992;20.910;2023-03-16T02:16:50;100403.33;;;22.30;30.10
69221;BME280;56331;51.992;20.910;2023-03-16T02:19:19;100402.52;;;22.30;30.12
69221;BME280;56331;51.992;20.910;2023-03-16T02:24:12;100416.15;;;22.28;30.02
69221;BME280;56331;51.992;20.910;2023-03-16T02:26:43;100414.76;;;22.28;30.07
69221;BME280;56331;51.992;20.910;2023-03-16T02:29:18;100413.15;;;22.27;30.06
69221;BME280;56331;51.992;20.910;2023-03-16T02:31:44;100410.95;;;22.27;30.01
69221;BME280;56331;51.992;20.910;2023-03-16T02:34:12;100412.92;;;22.26;30.00
69221;BME280;56331;51.992;20.910;2023-03-16T02:36:39;100423.45;;;22.27;29.95
69221;BME280;56331;51.992;20.910;2023-03-16T02:39:06;100428.19;;;22.26;29.94
69221;BME280;56331;51.992;20.910;2023-03-16T02:41:32;100430.71;;;22.25;30.02
69221;BME280;56331;51.992;20.910;2023-03-16T02:44:00;100433.16;;;22.27;30.07
69221;BME280;56331;51.992;20.910;2023-03-16T02:46:27;100437.06;;;22.26;30.07
69221;BME280;56331;51.992;20.910;2023-03-16T02:48:59;100439.62;;;22.25;30.07
69221;BME280;56331;51.992;20.910;2023-03-16T02:51:25;100432.91;;;22.26;30.10
69221;BME280;56331;51.992;20.910;2023-03-16T02:53:51;100441.01;;;22.25;30.03
69221;BME280;56331;51.992;20.910;2023-03-16T02:56:17;100449.55;;;22.26;30.05
69221;BME280;56331;51.992;20.910;2023-03-16T02:58:43;100450.72;;;22.25;30.06
69221;BME280;56331;51.992;20.910;2023-03-16T03:01:09;100447.14;;;22.24;30.04
69221;BME280;56331;51.992;20.910;2023-03-16T03:03:36;100448.52;;;22.24;30.02
69221;BME280;56331;51.992;20.910;2023-03-16T03:06:02;100448.62;;;22.22;29.48
69221;BME280;56331;51.992;20.910;2023-03-16T03:08:28;100445.86;;;22.22;28.86
69221;BME280;56331;51.992;20.910;2023-03-16T03:10:54;100449.22;;;22.21;28.57
69221;BME280;56331;51.992;20.910;2023-03-16T03:13:20;100451.15;;;22.21;28.16
69221;BME280;56331;51.992;20.910;2023-03-16T03:15:59;100451.73;;;22.20;27.86
69221;BME280;56331;51.992;20.910;2023-03-16T03:18:26;100451.23;;;22.18;27.71
69221;BME280;56331;51.992;20.910;2023-03-16T03:20:52;100456.77;;;22.18;27.30
69221;BME280;56331;51.992;20.910;2023-03-16T03:23:19;100452.39;;;22.17;27.33
69221;BME280;56331;51.992;20.910;2023-03-16T03:25:45;100448.00;;;22.16;27.16
69221;BME280;56331;51.992;20.910;2023-03-16T03:28:12;100460.49;;;22.16;27.05
69221;BME280;56331;51.992;20.910;2023-03-16T03:30:39;100459.43;;;22.15;26.81
69221;BME280;56331;51.992;20.910;2023-03-16T03:33:06;100462.43;;;22.16;26.72
69221;BME280;56331;51.992;20.910;2023-03-16T03:35:32;100471.91;;;22.15;26.58
69221;BME280;56331;51.992;20.910;2023-03-16T03:37:58;100474.47;;;22.14;26.43
69221;BME280;56331;51.992;20.910;2023-03-16T03:40:24;100472.24;;;22.13;26.27
69221;BME280;56331;51.992;20.910;2023-03-16T03:42:50;100478.63;;;22.14;26.13
69221;BME280;56331;51.992;20.910;2023-03-16T03:45:16;100476.41;;;22.13;26.17
69221;BME280;56331;51.992;20.910;2023-03-16T03:47:43;100483.92;;;22.13;26.13
69221;BME280;56331;51.992;20.910;2023-03-16T03:50:10;100490.05;;;22.12;26.03
69221;BME280;56331;51.992;20.910;2023-03-16T03:52:36;100487.86;;;22.12;26.01
69221;BME280;56331;51.992;20.910;2023-03-16T03:55:02;100489.47;;;22.13;25.93
69221;BME280;56331;51.992;20.910;2023-03-16T03:57:28;100487.28;;;22.12;26.00
69221;BME280;56331;51.992;20.910;2023-03-16T03:59:54;100498.60;;;22.13;25.83
69221;BME280;56331;51.992;20.910;2023-03-16T04:02:21;100494.22;;;22.12;25.64
69221;BME280;56331;51.992;20.910;2023-03-16T04:04:47;100497.57;;;22.12;25.79
69221;BME280;56331;51.992;20.910;2023-03-16T04:07:13;100498.16;;;22.11;26.21
69221;BME280;56331;51.992;20.910;2023-03-16T04:09:39;100499.77;;;22.12;26.54
69221;BME280;56331;51.992;20.910;2023-03-16T04:12:12;100501.37;;;22.13;26.76
69221;BME280;56331;51.992;20.910;2023-03-16T04:14:39;100504.73;;;22.13;26.93
69221;BME280;56331;51.992;20.910;2023-03-16T04:17:05;100506.13;;;22.13;27.04
69221;BME280;56331;51.992;20.910;2023-03-16T04:19:33;100508.09;;;22.12;27.15
69221;BME280;56331;51.992;20.910;2023-03-16T04:21:59;100510.86;;;22.12;27.24
69221;BME280;56331;51.992;20.910;2023-03-16T04:24:25;100514.22;;;22.12;27.30
69221;BME280;56331;51.992;20.910;2023-03-16T04:26:52;100514.22;;;22.12;27.37
69221;BME280;56331;51.992;20.910;2023-03-16T04:29:21;100510.38;;;22.10;27.44
69221;BME280;56331;51.992;20.910;2023-03-16T04:31:47;100512.02;;;22.11;27.52
69221;BME280;56331;51.992;20.910;2023-03-16T04:34:13;100509.25;;;22.11;27.53
69221;BME280;56331;51.992;20.910;2023-03-16T04:36:40;100509.80;;;22.11;27.60
69221;BME280;56331;51.992;20.910;2023-03-16T04:39:06;100514.55;;;22.10;27.70
69221;BME280;56331;51.992;20.910;2023-03-16T04:41:33;100521.25;;;22.09;27.70
69221;BME280;56331;51.992;20.910;2023-03-16T04:43:59;100531.77;;;22.10;27.74
69221;BME280;56331;51.992;20.910;2023-03-16T04:46:25;100530.97;;;22.09;27.78
69221;BME280;56331;51.992;20.910;2023-03-16T04:48:52;100534.55;;;22.10;27.77
69221;BME280;56331;51.992;20.910;2023-03-16T04:51:19;100539.87;;;22.09;27.87
69221;BME280;56331;51.992;20.910;2023-03-16T04:53:46;100538.23;;;22.07;27.87
69221;BME280;56331;51.992;20.910;2023-03-16T04:56:12;100544.58;;;22.08;27.77
69221;BME280;56331;51.992;20.910;2023-03-16T04:58:44;100541.58;;;22.07;27.85
69221;BME280;56331;51.992;20.910;2023-03-16T05:01:10;100549.09;;;22.06;27.94
69221;BME280;56331;51.992;20.910;2023-03-16T05:03:36;100548.29;;;22.06;27.94
69221;BME280;56331;51.992;20.910;2023-03-16T05:06:02;100549.68;;;22.06;27.97
69221;BME280;56331;51.992;20.910;2023-03-16T05:08:29;100550.27;;;22.05;27.97
69221;BME280;56331;51.992;20.910;2023-03-16T05:11:00;100551.39;;;22.04;27.98
69221;BME280;56331;51.992;20.910;2023-03-16T05:13:24;100548.62;;;22.04;27.95
69221;BME280;56331;51.992;20.910;2023-03-16T05:15:50;100550.58;;;22.04;28.01
69221;BME280;56331;51.992;20.910;2023-03-16T05:18:18;100552.55;;;22.03;27.99
69221;BME280;56331;51.992;20.910;2023-03-16T05:20:45;100555.33;;;22.03;28.05
69221;BME280;56331;51.992;20.910;2023-03-16T05:23:13;100557.84;;;22.02;28.08
69221;BME280;56331;51.992;20.910;2023-03-16T05:25:39;100552.30;;;22.02;28.16
69221;BME280;56331;51.992;20.910;2023-03-16T05:28:07;100559.23;;;22.02;28.16
69221;BME280;56331;51.992;20.910;2023-03-16T05:30:34;100559.23;;;22.02;28.13
69221;BME280;56331;51.992;20.910;2023-03-16T05:33:01;100558.42;;;22.02;28.19
69221;BME280;56331;51.992;20.910;2023-03-16T05:35:28;100563.39;;;22.02;28.16
69221;BME280;56331;51.992;20.910;2023-03-16T05:37:54;100562.59;;;22.02;28.18
69221;BME280;56331;51.992;20.910;2023-03-16T05:40:20;100563.75;;;22.01;28.20
69221;BME280;56331;51.992;20.910;2023-03-16T05:42:48;100565.94;;;22.01;28.25
69221;BME280;56331;51.992;20.910;2023-03-16T05:45:15;100574.27;;;22.01;28.31
69221;BME280;56331;51.992;20.910;2023-03-16T05:47:42;100565.72;;;22.00;28.38
69221;BME280;56331;51.992;20.910;2023-03-16T05:50:09;100567.91;;;22.01;28.42
69221;BME280;56331;51.992;20.910;2023-03-16T05:52:36;100569.04;;;22.00;28.47
69221;BME280;56331;51.992;20.910;2023-03-16T05:55:08;100570.42;;;22.00;28.46
69221;BME280;56331;51.992;20.910;2023-03-16T05:57:31;100573.20;;;22.00;28.52
69221;BME280;56331;51.992;20.910;2023-03-16T06:00:14;100577.94;;;21.99;28.69
69221;BME280;56331;51.992;20.910;2023-03-16T06:02:42;100573.78;;;21.99;28.86
69221;BME280;56331;51.992;20.910;2023-03-16T06:05:09;100575.97;;;22.00;28.84
69221;BME280;56331;51.992;20.910;2023-03-16T06:07:35;100578.52;;;21.99;28.61
69221;BME280;56331;51.992;20.910;2023-03-16T06:10:03;100581.88;;;21.98;28.71
69221;BME280;56331;51.992;20.910;2023-03-16T06:12:30;100583.27;;;21.98;28.72
69221;BME280;56331;51.992;20.910;2023-03-16T06:14:56;100581.88;;;21.98;28.75
69221;BME280;56331;51.992;20.910;2023-03-16T06:17:22;100580.48;;;21.98;28.71
69221;BME280;56331;51.992;20.910;2023-03-16T06:19:48;100583.84;;;21.98;28.78
69221;BME280;56331;51.992;20.910;2023-03-16T06:22:14;100582.45;;;21.98;28.85
69221;BME280;56331;51.992;20.910;2023-03-16T06:24:40;100580.23;;;21.97;28.96
69221;BME280;56331;51.992;20.910;2023-03-16T06:27:06;100584.97;;;21.97;29.07
69221;BME280;56331;51.992;20.910;2023-03-16T06:29:32;100594.36;;;21.98;29.19
69221;BME280;56331;51.992;20.910;2023-03-16T06:31:59;100590.20;;;21.98;29.22
69221;BME280;56331;51.992;20.910;2023-03-16T06:34:25;100593.78;;;21.99;29.40
69221;BME280;56331;51.992;20.910;2023-03-16T06:36:52;100592.97;;;21.98;30.03
69221;BME280;56331;51.992;20.910;2023-03-16T06:39:18;100595.75;;;21.98;30.36
69221;BME280;56331;51.992;20.910;2023-03-16T06:41:49;100595.48;;;21.97;30.01
69221;BME280;56331;51.992;20.910;2023-03-16T06:44:15;100599.65;;;21.97;30.14
69221;BME280;56331;51.992;20.910;2023-03-16T06:46:41;100604.39;;;21.97;29.79
69221;BME280;56331;51.992;20.910;2023-03-16T06:49:07;100599.42;;;21.96;29.51
69221;BME280;56331;51.992;20.910;2023-03-16T06:51:35;100602.20;;;21.96;29.28
69221;BME280;56331;51.992;20.910;2023-03-16T06:54:01;100605.55;;;21.96;29.18
69221;BME280;56331;51.992;20.910;2023-03-16T06:56:27;100610.52;;;21.96;28.93
69221;BME280;56331;51.992;20.910;2023-03-16T06:58:53;100620.00;;;21.95;28.76
69221;BME280;56331;51.992;20.910;2023-03-16T07:01:19;100621.39;;;21.95;28.67
69221;BME280;56331;51.992;20.910;2023-03-16T07:03:46;100626.09;;;21.95;28.42
69221;BME280;56331;51.992;20.910;2023-03-16T07:06:14;100625.87;;;21.94;28.21
69221;BME280;56331;51.992;20.910;2023-03-16T07:08:49;100627.48;;;21.95;28.10
69221;BME280;56331;51.992;20.910;2023-03-16T07:11:18;100625.29;;;21.94;27.90
69221;BME280;56331;51.992;20.910;2023-03-16T07:13:45;100625.87;;;21.94;27.87
69221;BME280;56331;51.992;20.910;2023-03-16T07:16:11;100626.09;;;21.95;27.87
69221;BME280;56331;51.992;20.910;2023-03-16T07:18:38;100635.25;;;21.95;27.78
69221;BME280;56331;51.992;20.910;2023-03-16T07:21:07;100634.91;;;21.97;27.69
69221;BME280;56331;51.992;20.910;2023-03-16T07:23:36;100642.42;;;21.96;27.55
69221;BME280;56331;51.992;20.910;2023-03-16T07:26:04;100634.32;;;21.97;27.54
69221;BME280;56331;51.992;20.910;2023-03-16T07:28:35;100636.55;;;21.98;27.41
69221;BME280;56331;51.992;20.910;2023-03-16T07:31:06;100641.74;;;21.99;27.34
69221;BME280;56331;51.992;20.910;2023-03-16T07:33:35;100646.16;;;22.00;27.34
69221;BME280;56331;51.992;20.910;2023-03-16T07:36:02;100647.20;;;22.02;27.29
69221;BME280;56331;51.992;20.910;2023-03-16T07:38:31;100639.68;;;22.02;27.25
69221;BME280;56331;51.992;20.910;2023-03-16T07:40:58;100649.30;;;22.05;27.22
69221;BME280;56331;51.992;20.910;2023-03-16T07:43:25;100647.59;;;22.06;27.16
69221;BME280;56331;51.992;20.910;2023-03-16T07:45:52;100647.81;;;22.07;27.14
69221;BME280;56331;51.992;20.910;2023-03-16T07:48:19;100652.46;;;22.10;27.06
69221;BME280;56331;51.992;20.910;2023-03-16T07:50:47;100650.75;;;22.11;27.02
69221;BME280;56331;51.992;20.910;2023-03-16T07:53:14;100658.14;;;22.13;27.01
69221;BME280;56331;51.992;20.910;2023-03-16T07:55:41;100655.27;;;22.16;26.96
69221;BME280;56331;51.992;20.910;2023-03-16T07:58:09;100654.72;;;22.16;27.00
69221;BME280;56331;51.992;20.910;2023-03-16T08:00:37;100647.13;;;22.19;26.95
69221;BME280;56331;51.992;20.910;2023-03-16T08:03:04;100652.59;;;22.22;26.87
69221;BME280;56331;51.992;20.910;2023-03-16T08:05:31;100652.23;;;22.23;26.85
69221;BME280;56331;51.992;20.910;2023-03-16T08:07:57;100644.66;;;22.26;26.82
69221;BME280;56331;51.992;20.910;2023-03-16T08:10:24;100649.04;;;22.27;26.83
69221;BME280;56331;51.992;20.910;2023-03-16T08:12:55;100650.91;;;22.30;26.78
69221;BME280;56331;51.992;20.910;2023-03-16T08:15:24;100655.55;;;22.32;26.69
69221;BME280;56331;51.992;20.910;2023-03-16T08:17:55;100654.63;;;22.34;26.74
69221;BME280;56331;51.992;20.910;2023-03-16T08:20:24;100659.27;;;22.36;26.75
69221;BME280;56331;51.992;20.910;2023-03-16T08:22:51;100655.33;;;22.37;26.65
69221;BME280;56331;51.992;20.910;2023-03-16T08:25:19;100659.98;;;22.39;26.73
69221;BME280;56331;51.992;20.910;2023-03-16T08:27:47;100664.39;;;22.40;26.82
69221;BME280;56331;51.992;20.910;2023-03-16T08:30:15;100660.45;;;22.41;26.83
69221;BME280;56331;51.992;20.910;2023-03-16T08:32:42;100651.81;;;22.42;27.01
69221;BME280;56331;51.992;20.910;2023-03-16T08:35:12;100650.64;;;22.43;27.11
69221;BME280;56331;51.992;20.910;2023-03-16T08:37:42;100656.67;;;22.45;27.51
69221;BME280;56331;51.992;20.910;2023-03-16T08:40:10;100661.06;;;22.46;28.27
69221;BME280;56331;51.992;20.910;2023-03-16T08:42:41;100656.32;;;22.47;28.38
69221;BME280;56331;51.992;20.910;2023-03-16T08:45:19;100661.55;;;22.48;28.48
69221;BME280;56331;51.992;20.910;2023-03-16T08:47:49;100664.00;;;22.50;28.53
69221;BME280;56331;51.992;20.910;2023-03-16T08:50:22;100664.33;;;22.48;28.57
69221;BME280;56331;51.992;20.910;2023-03-16T08:52:49;100663.64;;;22.52;28.70
69221;BME280;56331;51.992;20.910;2023-03-16T08:55:19;100667.81;;;22.52;28.74
69221;BME280;56331;51.992;20.910;2023-03-16T08:57:46;100668.30;;;22.54;28.78
69221;BME280;56331;51.992;20.910;2023-03-16T09:00:24;100673.27;;;22.54;28.75
69221;BME280;56331;51.992;20.910;2023-03-16T09:02:53;100675.94;;;22.57;28.85
69221;BME280;56331;51.992;20.910;2023-03-16T09:05:23;100673.74;;;22.56;28.85
69221;BME280;56331;51.992;20.910;2023-03-16T09:07:51;100678.97;;;22.58;28.91
69221;BME280;56331;51.992;20.910;2023-03-16T09:10:21;100673.64;;;22.59;28.92
69221;BME280;56331;51.992;20.910;2023-03-16T09:12:50;100681.17;;;22.58;28.98
69221;BME280;56331;51.992;20.910;2023-03-16T09:15:18;100678.62;;;22.59;29.04
69221;BME280;56331;51.992;20.910;2023-03-16T09:17:53;100677.48;;;22.60;29.03
69221;BME280;56331;51.992;20.910;2023-03-16T09:20:21;100673.32;;;22.60;29.09
69221;BME280;56331;51.992;20.910;2023-03-16T09:22:47;100681.30;;;22.62;29.08
69221;BME280;56331;51.992;20.910;2023-03-16T09:25:16;100679.91;;;22.62;29.03
69221;BME280;56331;51.992;20.910;2023-03-16T09:27:50;100686.27;;;22.62;29.02
69221;BME280;56331;51.992;20.910;2023-03-16T09:30:17;100679.09;;;22.61;29.02
69221;BME280;56331;51.992;20.910;2023-03-16T09:32:48;100678.29;;;22.61;28.96
69221;BME280;56331;51.992;20.910;2023-03-16T09:35:15;100677.81;;;22.59;28.38
69221;BME280;56331;51.992;20.910;2023-03-16T09:37:45;100679.20;;;22.59;27.69
69221;BME280;56331;51.992;20.910;2023-03-16T09:40:24;100680.36;;;22.58;27.48
69221;BME280;56331;51.992;20.910;2023-03-16T09:48:16;100675.72;;;22.56;26.75
69221;BME280;56331;51.992;20.910;2023-03-16T09:50:48;100674.65;;;22.54;26.60
69221;BME280;56331;51.992;20.910;2023-03-16T09:53:29;100683.56;;;22.54;26.33
69221;BME280;56331;51.992;20.910;2023-03-16T09:55:57;100681.95;;;22.53;26.24
69221;BME280;56331;51.992;20.910;2023-03-16T09:58:25;100689.70;;;22.53;26.13
69221;BME280;56331;51.992;20.910;2023-03-16T10:01:05;100691.08;;;22.53;25.88
69221;BME280;56331;51.992;20.910;2023-03-16T10:06:25;100690.50;;;22.54;25.72
69221;BME280;56331;51.992;20.910;2023-03-16T10:14:04;100687.50;;;22.53;25.40
69221;BME280;56331;51.992;20.910;2023-03-16T10:16:35;100681.69;;;22.52;25.33
69221;BME280;56331;51.992;20.910;2023-03-16T10:21:50;100691.98;;;22.51;25.17
69221;BME280;56331;51.992;20.910;2023-03-16T10:24:20;100692.47;;;22.53;25.14
69221;BME280;56331;51.992;20.910;2023-03-16T10:26:47;100698.25;;;22.54;24.96
69221;BME280;56331;51.992;20.910;2023-03-16T10:29:14;100693.86;;;22.53;24.87
69221;BME280;56331;51.992;20.910;2023-03-16T10:31:42;100695.83;;;22.53;24.80
69221;BME280;56331;51.992;20.910;2023-03-16T10:34:11;100695.25;;;22.53;24.97
69221;BME280;56331;51.992;20.910;2023-03-16T10:36:40;100693.15;;;22.50;25.33
69221;BME280;56331;51.992;20.910;2023-03-16T10:39:12;100702.13;;;22.47;25.32
69221;BME280;56331;51.992;20.910;2023-03-16T10:41:43;100706.88;;;22.46;25.54
69221;BME280;56331;51.992;20.910;2023-03-16T10:44:11;100704.45;;;22.45;25.72
69221;BME280;56331;51.992;20.910;2023-03-16T10:46:48;100696.12;;;22.45;25.72
69221;BME280;56331;51.992;20.910;2023-03-16T10:49:27;100696.67;;;22.44;25.93
69221;BME280;56331;51.992;20.910;2023-03-16T10:51:56;100697.84;;;22.43;26.09
69221;BME280;56331;51.992;20.910;2023-03-16T10:54:28;100699.00;;;22.42;26.30
69221;BME280;56331;51.992;20.910;2023-03-16T10:57:22;100697.61;;;22.42;26.65
69221;BME280;56331;51.992;20.910;2023-03-16T10:59:34;100699.55;;;22.42;26.83
69221;BME280;56331;51.992;20.910;2023-03-16T11:02:13;100696.77;;;22.42;26.96
69221;BME280;56331;51.992;20.910;2023-03-16T11:04:36;100698.73;;;22.41;27.24
69221;BME280;56331;51.992;20.910;2023-03-16T11:07:05;100699.00;;;22.42;27.61
69221;BME280;56331;51.992;20.910;2023-03-16T11:09:34;100701.42;;;22.44;27.92
69221;BME280;56331;51.992;20.910;2023-03-16T11:12:19;100703.06;;;22.45;28.16
69221;BME280;56331;51.992;20.910;2023-03-16T11:14:43;100705.00;;;22.44;28.14
69221;BME280;56331;51.992;20.910;2023-03-16T11:17:13;100711.14;;;22.44;28.21
69221;BME280;56331;51.992;20.910;2023-03-16T11:19:49;100706.75;;;22.43;28.00
69221;BME280;56331;51.992;20.910;2023-03-16T11:22:25;100697.03;;;22.43;27.97
69221;BME280;56331;51.992;20.910;2023-03-16T11:24:59;100700.03;;;22.44;27.95
69221;BME280;56331;51.992;20.910;2023-03-16T11:27:32;100701.19;;;22.43;27.87
69221;BME280;56331;51.992;20.910;2023-03-16T11:30:03;100702.91;;;22.41;27.72
69221;BME280;56331;51.992;20.910;2023-03-16T11:32:36;100708.45;;;22.41;27.69
69221;BME280;56331;51.992;20.910;2023-03-16T11:35:11;100707.06;;;22.41;27.69
69221;BME280;56331;51.992;20.910;2023-03-16T11:40:29;100704.06;;;22.40;27.61
69221;BME280;56331;51.992;20.910;2023-03-16T11:45:31;100702.67;;;22.40;27.33
69221;BME280;56331;51.992;20.910;2023-03-16T11:48:02;100699.90;;;22.40;27.29
69221;BME280;56331;51.992;20.910;2023-03-16T11:50:49;100707.97;;;22.39;27.24
69221;BME280;56331;51.992;20.910;2023-03-16T12:07:15;100714.69;;;22.38;26.92
69221;BME280;56331;51.992;20.910;2023-03-16T12:12:08;100712.39;;;22.40;26.54
69221;BME280;56331;51.992;20.910;2023-03-16T12:14:52;100713.42;;;22.42;26.43
69221;BME280;56331;51.992;20.910;2023-03-16T12:17:38;100711.48;;;22.42;26.12
69221;BME280;56331;51.992;20.910;2023-03-16T12:20:20;100706.75;;;22.43;25.99
69221;BME280;56331;51.992;20.910;2023-03-16T12:22:52;100710.91;;;22.43;25.88
69221;BME280;56331;51.992;20.910;2023-03-16T12:25:21;100707.55;;;22.43;25.73
69221;BME280;56331;51.992;20.910;2023-03-16T12:27:51;100711.14;;;22.44;25.60
69221;BME280;56331;51.992;20.910;2023-03-16T12:33:10;100710.33;;;22.43;25.39
69221;BME280;56331;51.992;20.910;2023-03-16T12:35:41;100715.30;;;22.44;25.29
69221;BME280;56331;51.992;20.910;2023-03-16T12:48:27;100716.46;;;22.43;24.90
69221;BME280;56331;51.992;20.910;2023-03-16T12:50:59;100719.46;;;22.44;24.82
69221;BME280;56331;51.992;20.910;2023-03-16T12:53:41;100714.48;;;22.43;24.75
69221;BME280;56331;51.992;20.910;2023-03-16T12:56:17;100720.85;;;22.44;24.74
69221;BME280;56331;51.992;20.910;2023-03-16T12:58:50;100727.79;;;22.44;24.67
69221;BME280;56331;51.992;20.910;2023-03-16T13:01:15;100723.62;;;22.44;24.62
69221;BME280;56331;51.992;20.910;2023-03-16T13:03:48;100719.23;;;22.43;24.65
69221;BME280;56331;51.992;20.910;2023-03-16T13:06:21;100726.76;;;22.42;24.79
69221;BME280;56331;51.992;20.910;2023-03-16T13:08:51;100725.69;;;22.41;24.95
69221;BME280;56331;51.992;20.910;2023-03-16T13:11:20;100722.43;;;22.39;25.04
69221;BME280;56331;51.992;20.910;2023-03-16T13:16:28;100724.17;;;22.37;25.16
69221;BME280;56331;51.992;20.910;2023-03-16T13:18:55;100725.88;;;22.36;25.21
69221;BME280;56331;51.992;20.910;2023-03-16T13:21:37;100722.04;;;22.34;25.24
69221;BME280;56331;51.992;20.910;2023-03-16T13:26:46;100726.56;;;22.33;25.33
69221;BME280;56331;51.992;20.910;2023-03-16T13:31:49;100728.53;;;22.32;25.38
69221;BME280;56331;51.992;20.910;2023-03-16T13:34:25;100719.72;;;22.30;25.43
69221;BME280;56331;51.992;20.910;2023-03-16T13:36:52;100728.27;;;22.31;25.39
69221;BME280;56331;51.992;20.910;2023-03-16T13:39:19;100726.33;;;22.32;25.45
69221;BME280;56331;51.992;20.910;2023-03-16T13:42:02;100725.27;;;22.30;25.39
69221;BME280;56331;51.992;20.910;2023-03-16T13:44:40;100727.45;;;22.31;25.37
69221;BME280;56331;51.992;20.910;2023-03-16T13:47:16;100717.75;;;22.31;25.44
69221;BME280;56331;51.992;20.910;2023-03-16T13:49:46;100723.06;;;22.30;25.50
69221;BME280;56331;51.992;20.910;2023-03-16T13:52:19;100726.66;;;22.30;25.52
69221;BME280;56331;51.992;20.910;2023-03-16T13:54:44;100718.33;;;22.30;25.60
69221;BME280;56331;51.992;20.910;2023-03-16T13:57:12;100725.59;;;22.28;25.73